sensor_id;sensor_type;location;lat;lon;timestamp;pressure;altitude;pressure_sealevel;temperature;humidity
50790;BME280;37287;47.554;7.844;2023-01-16T00:00:00;96912.13;;;0.07;100.00
50790;BME280;37287;47.554;7.844;2023-01-16T00:02:28;96905.03;;;0.11;100.00
50790;BME280;37287;47.554;7.844;2023-01-16T00:04:55;96894.50;;;0.15;100.00
50790;BME280;37287;47.554;7.844;2023-01-16T00:07:21;96888.63;;;0.22;100.00
50790;BME280;37287;47.554;7.844;2023-01-16T00:09:50;96873.56;;;0.26;100.00
50790;BME280;37287;47.554;7.844;2023-01-16T00:12:16;96873.22;;;0.27;100.00
50790;BME280;37287;47.554;7.844;2023-01-16T00:14:44;96868.44;;;0.33;100.00
50790;BME280;37287;47.554;7.844;2023-01-16T00:17:20;96854.69;;;0.43;100.00
50790;BME280;37287;47.554;7.844;2023-01-16T00:19:46;96850.34;;;0.63;100.00
50790;BME280;37287;47.554;7.844;2023-01-16T00:22:13;96836.13;;;0.72;100.00
50790;BME280;37287;47.554;7.844;2023-01-16T00:24:43;96829.78;;;0.76;100.00
50790;BME280;37287;47.554;7.844;2023-01-16T00:27:12;96829.88;;;1.49;100.00
50790;BME280;37287;47.554;7.844;2023-01-16T00:29:39;96831.81;;;1.96;96.36
50790;BME280;37287;47.554;7.844;2023-01-16T00:32:06;96820.38;;;2.28;92.47
50790;BME280;37287;47.554;7.844;2023-01-16T00:34:34;96814.03;;;2.36;90.39
50790;BME280;37287;47.554;7.844;2023-01-16T00:37:01;96809.69;;;2.63;86.21
50790;BME280;37287;47.554;7.844;2023-01-16T00:39:29;96801.94;;;2.58;85.71
50790;BME280;37287;47.554;7.844;2023-01-16T00:41:55;96799.22;;;2.74;85.39
50790;BME280;37287;47.554;7.844;2023-01-16T00:44:22;96805.41;;;2.78;83.12
50790;BME280;37287;47.554;7.844;2023-01-16T00:46:49;96800.84;;;2.98;81.63
50790;BME280;37287;47.554;7.844;2023-01-16T00:49:15;96800.94;;;3.21;80.51
50790;BME280;37287;47.554;7.844;2023-01-16T00:51:42;96787.25;;;3.26;80.23
50790;BME280;37287;47.554;7.844;2023-01-16T00:54:09;96791.63;;;3.35;79.56
50790;BME280;37287;47.554;7.844;2023-01-16T00:56:35;96778.34;;;3.42;76.86
50790;BME280;37287;47.554;7.844;2023-01-16T00:59:02;96767.03;;;3.49;76.65
50790;BME280;37287;47.554;7.844;2023-01-16T01:01:30;96768.75;;;3.60;75.96
50790;BME280;37287;47.554;7.844;2023-01-16T01:03:59;96763.94;;;3.70;74.94
50790;BME280;37287;47.554;7.844;2023-01-16T01:06:27;96755.53;;;3.71;74.27
50790;BME280;37287;47.554;7.844;2023-01-16T01:08:54;96756.63;;;3.67;75.01
50790;BME280;37287;47.554;7.844;2023-01-16T01:11:21;96754.94;;;3.58;75.05
50790;BME280;37287;47.554;7.844;2023-01-16T01:13:48;96740.44;;;3.59;77.47
50790;BME280;37287;47.554;7.844;2023-01-16T01:16:16;96728.19;;;3.58;75.25
50790;BME280;37287;47.554;7.844;2023-01-16T01:18:43;96724.31;;;3.56;75.75
50790;BME280;37287;47.554;7.844;2023-01-16T01:21:10;96715.16;;;3.57;75.59
50790;BME280;37287;47.554;7.844;2023-01-16T01:23:38;96699.22;;;3.64;73.26
50790;BME280;37287;47.554;7.844;2023-01-16T01:26:10;96690.91;;;3.69;74.34
50790;BME280;37287;47.554;7.844;2023-01-16T01:28:37;96693.94;;;3.68;77.22
50790;BME280;37287;47.554;7.844;2023-01-16T01:31:07;96677.09;;;3.67;76.07
50790;BME280;37287;47.554;7.844;2023-01-16T01:33:34;96671.81;;;3.71;76.75
50790;BME280;37287;47.554;7.844;2023-01-16T01:36:02;96670.31;;;3.73;74.64
50790;BME280;37287;47.554;7.844;2023-01-16T01:38:29;96670.72;;;3.75;74.29
50790;BME280;37287;47.554;7.844;2023-01-16T01:40:56;96662.03;;;3.82;74.42
50790;BME280;37287;47.554;7.844;2023-01-16T01:43:48;96659.75;;;3.84;72.51
50790;BME280;37287;47.554;7.844;2023-01-16T01:46:18;96654.34;;;3.81;72.34
50790;BME280;37287;47.554;7.844;2023-01-16T01:48:48;96645.97;;;3.82;72.29
50790;BME280;37287;47.554;7.844;2023-01-16T01:51:19;96635.66;;;3.84;74.12
50790;BME280;37287;47.554;7.844;2023-01-16T01:54:07;96622.31;;;3.88;73.21
50790;BME280;37287;47.554;7.844;2023-01-16T01:56:36;96622.22;;;3.81;73.13
50790;BME280;37287;47.554;7.844;2023-01-16T01:59:11;96600.34;;;3.75;74.71
50790;BME280;37287;47.554;7.844;2023-01-16T02:01:40;96603.63;;;3.65;74.23
50790;BME280;37287;47.554;7.844;2023-01-16T02:04:13;96587.34;;;3.73;74.51
50790;BME280;37287;47.554;7.844;2023-01-16T02:06:45;96578.94;;;3.75;75.48
50790;BME280;37287;47.554;7.844;2023-01-16T02:09:13;96567.06;;;3.76;73.77
50790;BME280;37287;47.554;7.844;2023-01-16T02:11:58;96550.34;;;3.83;72.21
50790;BME280;37287;47.554;7.844;2023-01-16T02:14:31;96548.13;;;3.88;72.13
50790;BME280;37287;47.554;7.844;2023-01-16T02:17:04;96544.31;;;3.89;73.11
50790;BME280;37287;47.554;7.844;2023-01-16T02:20:12;96540.38;;;3.79;71.15
50790;BME280;37287;47.554;7.844;2023-01-16T02:23:11;96528.09;;;3.78;70.26
50790;BME280;37287;47.554;7.844;2023-01-16T02:34:23;96489.50;;;3.49;72.00
50790;BME280;37287;47.554;7.844;2023-01-16T02:37:33;96475.53;;;3.33;72.80
50790;BME280;37287;47.554;7.844;2023-01-16T02:42:43;96463.38;;;3.08;74.46
50790;BME280;37287;47.554;7.844;2023-01-16T02:45:18;96459.31;;;2.91;75.15
50790;BME280;37287;47.554;7.844;2023-01-16T02:48:25;96460.94;;;2.73;77.51
50790;BME280;37287;47.554;7.844;2023-01-16T02:51:02;96448.59;;;2.41;80.05
50790;BME280;37287;47.554;7.844;2023-01-16T02:54:03;96439.69;;;2.34;81.32
50790;BME280;37287;47.554;7.844;2023-01-16T02:56:43;96426.13;;;2.19;82.13
50790;BME280;37287;47.554;7.844;2023-01-16T02:59:16;96414.00;;;2.02;83.57
50790;BME280;37287;47.554;7.844;2023-01-16T03:01:46;96412.13;;;1.83;85.47
50790;BME280;37287;47.554;7.844;2023-01-16T03:04:48;96405.69;;;1.65;87.33
50790;BME280;37287;47.554;7.844;2023-01-16T03:18:33;96358.97;;;1.12;91.37
50790;BME280;37287;47.554;7.844;2023-01-16T03:21:30;96358.00;;;1.01;92.57
50790;BME280;37287;47.554;7.844;2023-01-16T03:24:07;96350.97;;;0.93;92.67
50790;BME280;37287;47.554;7.844;2023-01-16T03:26:53;96334.13;;;0.89;93.46
50790;BME280;37287;47.554;7.844;2023-01-16T03:29:35;96321.88;;;0.84;93.61
50790;BME280;37287;47.554;7.844;2023-01-16T03:32:07;96327.13;;;0.80;94.05
50790;BME280;37287;47.554;7.844;2023-01-16T03:37:51;96309.44;;;0.72;93.95
50790;BME280;37287;47.554;7.844;2023-01-16T03:40:24;96299.13;;;0.71;94.56
50790;BME280;37287;47.554;7.844;2023-01-16T03:43:08;96294.25;;;0.73;94.40
50790;BME280;37287;47.554;7.844;2023-01-16T03:45:42;96271.47;;;0.75;95.15
50790;BME280;37287;47.554;7.844;2023-01-16T03:48:19;96259.25;;;0.74;94.88
50790;BME280;37287;47.554;7.844;2023-01-16T03:50:51;96250.84;;;0.72;95.52
50790;BME280;37287;47.554;7.844;2023-01-16T03:53:23;96241.31;;;0.71;95.19
50790;BME280;37287;47.554;7.844;2023-01-16T03:56:03;96228.34;;;0.70;95.83
50790;BME280;37287;47.554;7.844;2023-01-16T03:58:48;96218.81;;;0.68;96.25
50790;BME280;37287;47.554;7.844;2023-01-16T04:04:33;96202.06;;;0.68;96.26
50790;BME280;37287;47.554;7.844;2023-01-16T04:07:17;96177.66;;;0.66;96.38
50790;BME280;37287;47.554;7.844;2023-01-16T04:09:53;96183.00;;;0.66;95.59
50790;BME280;37287;47.554;7.844;2023-01-16T04:12:25;96164.06;;;0.71;95.47
50790;BME280;37287;47.554;7.844;2023-01-16T04:15:00;96164.06;;;0.71;95.43
50790;BME280;37287;47.554;7.844;2023-01-16T04:17:33;96151.53;;;0.72;96.42
50790;BME280;37287;47.554;7.844;2023-01-16T04:20:02;96151.47;;;0.68;95.66
50790;BME280;37287;47.554;7.844;2023-01-16T04:22:29;96136.16;;;0.65;95.95
50790;BME280;37287;47.554;7.844;2023-01-16T04:24:57;96130.50;;;0.66;96.58
50790;BME280;37287;47.554;7.844;2023-01-16T04:27:25;96126.72;;;0.67;96.45
50790;BME280;37287;47.554;7.844;2023-01-16T04:29:54;96119.16;;;0.70;96.42
50790;BME280;37287;47.554;7.844;2023-01-16T04:32:23;96119.19;;;0.73;96.08
50790;BME280;37287;47.554;7.844;2023-01-16T04:34:50;96113.88;;;0.73;95.95
50790;BME280;37287;47.554;7.844;2023-01-16T04:37:17;96095.53;;;0.68;96.29
50790;BME280;37287;47.554;7.844;2023-01-16T04:39:46;96094.38;;;0.69;96.42
50790;BME280;37287;47.554;7.844;2023-01-16T04:42:16;96090.22;;;0.68;96.54
50790;BME280;37287;47.554;7.844;2023-01-16T04:44:42;96076.41;;;0.62;98.01
50790;BME280;37287;47.554;7.844;2023-01-16T04:47:09;96064.97;;;0.62;99.69
50790;BME280;37287;47.554;7.844;2023-01-16T04:49:36;96062.31;;;0.62;99.54
50790;BME280;37287;47.554;7.844;2023-01-16T04:52:03;96048.59;;;0.60;99.84
50790;BME280;37287;47.554;7.844;2023-01-16T04:54:36;96044.78;;;0.61;99.67
50790;BME280;37287;47.554;7.844;2023-01-16T04:57:02;96034.94;;;0.61;100.00
50790;BME280;37287;47.554;7.844;2023-01-16T04:59:29;96029.28;;;0.66;100.00
50790;BME280;37287;47.554;7.844;2023-01-16T05:01:58;96027.41;;;0.67;100.00
50790;BME280;37287;47.554;7.844;2023-01-16T05:04:24;96016.31;;;0.65;100.00
50790;BME280;37287;47.554;7.844;2023-01-16T05:06:51;96003.72;;;0.62;100.00
50790;BME280;37287;47.554;7.844;2023-01-16T05:09:18;96001.78;;;0.59;100.00
50790;BME280;37287;47.554;7.844;2023-01-16T05:11:44;95991.50;;;0.57;100.00
50790;BME280;37287;47.554;7.844;2023-01-16T05:14:14;95988.06;;;0.57;100.00
50790;BME280;37287;47.554;7.844;2023-01-16T05:16:41;95978.09;;;0.54;100.00
50790;BME280;37287;47.554;7.844;2023-01-16T05:19:08;95982.59;;;0.49;100.00
50790;BME280;37287;47.554;7.844;2023-01-16T05:21:35;95953.66;;;0.48;100.00
50790;BME280;37287;47.554;7.844;2023-01-16T05:24:07;95934.66;;;0.49;100.00
50790;BME280;37287;47.554;7.844;2023-01-16T05:26:33;95955.28;;;0.53;100.00
50790;BME280;37287;47.554;7.844;2023-01-16T05:29:00;95937.00;;;0.51;100.00
50790;BME280;37287;47.554;7.844;2023-01-16T05:31:26;95919.84;;;0.48;100.00
50790;BME280;37287;47.554;7.844;2023-01-16T05:33:53;95920.19;;;0.47;100.00
50790;BME280;37287;47.554;7.844;2023-01-16T05:36:20;95916.34;;;0.44;100.00
50790;BME280;37287;47.554;7.844;2023-01-16T05:38:51;95911.03;;;0.44;100.00
50790;BME280;37287;47.554;7.844;2023-01-16T05:41:17;95896.53;;;0.42;100.00
50790;BME280;37287;47.554;7.844;2023-01-16T05:43:46;95885.13;;;0.41;100.00
50790;BME280;37287;47.554;7.844;2023-01-16T05:46:24;95879.81;;;0.41;100.00
50790;BME280;37287;47.554;7.844;2023-01-16T05:48:51;95863.84;;;0.41;100.00
50790;BME280;37287;47.554;7.844;2023-01-16T05:51:18;95854.34;;;0.44;100.00
50790;BME280;37287;47.554;7.844;2023-01-16T05:53:49;95848.25;;;0.43;100.00
50790;BME280;37287;47.554;7.844;2023-01-16T05:56:17;95839.53;;;0.46;100.00
50790;BME280;37287;47.554;7.844;2023-01-16T05:58:46;95842.31;;;0.54;100.00
50790;BME280;37287;47.554;7.844;2023-01-16T06:01:12;95825.97;;;0.55;100.00
50790;BME280;37287;47.554;7.844;2023-01-16T06:03:39;95819.16;;;0.58;100.00
50790;BME280;37287;47.554;7.844;2023-01-16T06:06:07;95813.47;;;0.59;100.00
50790;BME280;37287;47.554;7.844;2023-01-16T06:08:36;95809.66;;;0.57;100.00
50790;BME280;37287;47.554;7.844;2023-01-16T06:11:03;95810.72;;;0.52;100.00
50790;BME280;37287;47.554;7.844;2023-01-16T06:13:31;95797.41;;;0.52;100.00
50790;BME280;37287;47.554;7.844;2023-01-16T06:15:57;95778.03;;;0.55;100.00
50790;BME280;37287;47.554;7.844;2023-01-16T06:18:26;95774.69;;;0.58;100.00
50790;BME280;37287;47.554;7.844;2023-01-16T06:20:56;95781.13;;;0.57;100.00
50790;BME280;37287;47.554;7.844;2023-01-16T06:23:23;95788.75;;;0.59;100.00
50790;BME280;37287;47.554;7.844;2023-01-16T06:25:50;95784.53;;;0.58;100.00
50790;BME280;37287;47.554;7.844;2023-01-16T06:28:16;95778.81;;;0.56;100.00
50790;BME280;37287;47.554;7.844;2023-01-16T06:30:43;95780.31;;;0.53;100.00
50790;BME280;37287;47.554;7.844;2023-01-16T06:33:10;95767.31;;;0.48;100.00
50790;BME280;37287;47.554;7.844;2023-01-16T06:35:36;95758.94;;;0.46;100.00
50790;BME280;37287;47.554;7.844;2023-01-16T06:38:03;95752.84;;;0.45;100.00
50790;BME280;37287;47.554;7.844;2023-01-16T06:40:30;95747.09;;;0.43;100.00
50790;BME280;37287;47.554;7.844;2023-01-16T06:43:00;95741.38;;;0.41;100.00
50790;BME280;37287;47.554;7.844;2023-01-16T06:45:27;95720.84;;;0.42;100.00
50790;BME280;37287;47.554;7.844;2023-01-16T06:47:53;95713.59;;;0.39;100.00
50790;BME280;37287;47.554;7.844;2023-01-16T06:50:24;95709.38;;;0.38;100.00
50790;BME280;37287;47.554;7.844;2023-01-16T06:52:51;95714.69;;;0.38;100.00
50790;BME280;37287;47.554;7.844;2023-01-16T06:55:18;95694.13;;;0.34;100.00
50790;BME280;37287;47.554;7.844;2023-01-16T06:57:46;95691.47;;;0.34;100.00
50790;BME280;37287;47.554;7.844;2023-01-16T07:02:40;95672.88;;;0.38;100.00
50790;BME280;37287;47.554;7.844;2023-01-16T07:05:09;95670.63;;;0.40;100.00
50790;BME280;37287;47.554;7.844;2023-01-16T07:07:36;95666.88;;;0.45;100.00
50790;BME280;37287;47.554;7.844;2023-01-16T07:10:03;95666.19;;;0.51;100.00
50790;BME280;37287;47.554;7.844;2023-01-16T07:12:32;95672.72;;;0.58;100.00
50790;BME280;37287;47.554;7.844;2023-01-16T07:14:59;95664.03;;;0.64;100.00
50790;BME280;37287;47.554;7.844;2023-01-16T07:17:46;95663.28;;;0.64;100.00
50790;BME280;37287;47.554;7.844;2023-01-16T07:20:31;95657.63;;;0.69;99.55
50790;BME280;37287;47.554;7.844;2023-01-16T07:23:24;95640.50;;;0.70;99.92
50790;BME280;37287;47.554;7.844;2023-01-16T07:25:52;95650.44;;;0.73;99.79
50790;BME280;37287;47.554;7.844;2023-01-16T07:28:21;95645.09;;;0.73;99.63
50790;BME280;37287;47.554;7.844;2023-01-16T07:30:48;95645.09;;;0.73;99.32
50790;BME280;37287;47.554;7.844;2023-01-16T07:33:15;95647.38;;;0.71;99.40
50790;BME280;37287;47.554;7.844;2023-01-16T07:35:46;95650.78;;;0.72;98.82
50790;BME280;37287;47.554;7.844;2023-01-16T07:38:13;95652.69;;;0.71;99.24
50790;BME280;37287;47.554;7.844;2023-01-16T07:40:39;95640.88;;;0.68;99.30
50790;BME280;37287;47.554;7.844;2023-01-16T07:43:08;95637.47;;;0.68;99.99
50790;BME280;37287;47.554;7.844;2023-01-16T07:45:34;95634.78;;;0.68;100.00
50790;BME280;37287;47.554;7.844;2023-01-16T07:48:01;95626.03;;;0.67;100.00
50790;BME280;37287;47.554;7.844;2023-01-16T07:50:32;95623.72;;;0.66;100.00
50790;BME280;37287;47.554;7.844;2023-01-16T07:52:59;95624.53;;;0.70;99.60
50790;BME280;37287;47.554;7.844;2023-01-16T07:55:25;95607.81;;;0.73;99.25
50790;BME280;37287;47.554;7.844;2023-01-16T07:57:55;95591.09;;;0.76;98.76
50790;BME280;37287;47.554;7.844;2023-01-16T08:00:24;95596.47;;;0.80;99.21
50790;BME280;37287;47.554;7.844;2023-01-16T08:02:50;95582.41;;;0.83;98.31
50790;BME280;37287;47.554;7.844;2023-01-16T08:05:17;95571.78;;;0.87;98.38
50790;BME280;37287;47.554;7.844;2023-01-16T08:07:44;95582.09;;;0.88;98.45
50790;BME280;37287;47.554;7.844;2023-01-16T08:10:11;95580.59;;;0.91;97.72
50790;BME280;37287;47.554;7.844;2023-01-16T08:12:43;95579.84;;;0.97;96.51
50790;BME280;37287;47.554;7.844;2023-01-16T08:15:10;95578.78;;;1.02;96.53
50790;BME280;37287;47.554;7.844;2023-01-16T08:17:38;95587.56;;;1.06;96.43
50790;BME280;37287;47.554;7.844;2023-01-16T08:20:08;95599.34;;;1.09;95.60
50790;BME280;37287;47.554;7.844;2023-01-16T08:22:41;95580.75;;;1.12;95.56
50790;BME280;37287;47.554;7.844;2023-01-16T08:25:10;95590.66;;;1.15;95.69
50790;BME280;37287;47.554;7.844;2023-01-16T08:27:39;95576.22;;;1.20;95.31
50790;BME280;37287;47.554;7.844;2023-01-16T08:30:07;95554.50;;;1.22;95.53
50790;BME280;37287;47.554;7.844;2023-01-16T08:32:36;95566.72;;;1.23;95.77
50790;BME280;37287;47.554;7.844;2023-01-16T08:35:03;95579.66;;;1.24;95.57
50790;BME280;37287;47.554;7.844;2023-01-16T08:37:31;95576.63;;;1.26;95.13
50790;BME280;37287;47.554;7.844;2023-01-16T08:40:02;95557.25;;;1.29;94.89
50790;BME280;37287;47.554;7.844;2023-01-16T08:42:30;95556.88;;;1.34;94.93
50790;BME280;37287;47.554;7.844;2023-01-16T08:45:18;95542.84;;;1.44;93.84
50790;BME280;37287;47.554;7.844;2023-01-16T08:48:04;95534.53;;;1.57;92.46
50790;BME280;37287;47.554;7.844;2023-01-16T08:50:51;95523.88;;;1.57;92.37
50790;BME280;37287;47.554;7.844;2023-01-16T08:53:37;95527.72;;;1.63;91.77
50790;BME280;37287;47.554;7.844;2023-01-16T08:56:07;95526.19;;;1.65;91.41
50790;BME280;37287;47.554;7.844;2023-01-16T08:58:36;95531.56;;;1.76;90.69
50790;BME280;37287;47.554;7.844;2023-01-16T09:01:02;95527.81;;;1.92;89.25
50790;BME280;37287;47.554;7.844;2023-01-16T09:03:33;95520.25;;;2.01;88.32
50790;BME280;37287;47.554;7.844;2023-01-16T09:06:02;95521.41;;;2.07;88.10
50790;BME280;37287;47.554;7.844;2023-01-16T09:08:29;95539.31;;;2.10;87.64
50790;BME280;37287;47.554;7.844;2023-01-16T09:10:57;95527.09;;;2.09;88.37
50790;BME280;37287;47.554;7.844;2023-01-16T09:13:42;95541.63;;;2.15;88.77
50790;BME280;37287;47.554;7.844;2023-01-16T09:16:33;95524.09;;;2.18;89.76
50790;BME280;37287;47.554;7.844;2023-01-16T09:18:59;95523.72;;;2.19;89.47
50790;BME280;37287;47.554;7.844;2023-01-16T09:21:28;95522.19;;;2.22;89.26
50790;BME280;37287;47.554;7.844;2023-01-16T09:23:55;95522.19;;;2.26;89.25
50790;BME280;37287;47.554;7.844;2023-01-16T09:26:21;95516.09;;;2.29;89.45
50790;BME280;37287;47.554;7.844;2023-01-16T09:28:52;95522.97;;;2.30;89.99
50790;BME280;37287;47.554;7.844;2023-01-16T09:31:21;95508.91;;;2.62;87.88
50790;BME280;37287;47.554;7.844;2023-01-16T09:33:48;95511.56;;;2.90;88.42
50790;BME280;37287;47.554;7.844;2023-01-16T09:36:17;95505.44;;;3.01;86.39
50790;BME280;37287;47.554;7.844;2023-01-16T09:38:44;95509.59;;;3.31;85.08
50790;BME280;37287;47.554;7.844;2023-01-16T09:41:15;95504.59;;;3.51;84.14
50790;BME280;37287;47.554;7.844;2023-01-16T09:44:07;95501.09;;;3.57;83.60
50790;BME280;37287;47.554;7.844;2023-01-16T09:46:38;95496.44;;;3.79;82.89
50790;BME280;37287;47.554;7.844;2023-01-16T09:49:53;95493.38;;;4.48;80.05
50790;BME280;37287;47.554;7.844;2023-01-16T09:52:27;95503.56;;;4.68;78.97
50790;BME280;37287;47.554;7.844;2023-01-16T09:55:31;95493.47;;;4.86;79.07
50790;BME280;37287;47.554;7.844;2023-01-16T09:58:20;95507.13;;;5.03;77.44
50790;BME280;37287;47.554;7.844;2023-01-16T10:03:33;95489.75;;;5.18;77.08
50790;BME280;37287;47.554;7.844;2023-01-16T10:06:24;95472.41;;;5.26;74.11
50790;BME280;37287;47.554;7.844;2023-01-16T10:09:14;95462.03;;;5.28;75.12
50790;BME280;37287;47.554;7.844;2023-01-16T10:11:58;95473.94;;;5.27;74.54
50790;BME280;37287;47.554;7.844;2023-01-16T10:17:20;95466.22;;;5.33;73.81
50790;BME280;37287;47.554;7.844;2023-01-16T10:31:16;95434.28;;;5.42;74.28
50790;BME280;37287;47.554;7.844;2023-01-16T10:34:00;95422.41;;;5.43;74.80
50790;BME280;37287;47.554;7.844;2023-01-16T10:36:36;95415.50;;;5.42;74.23
50790;BME280;37287;47.554;7.844;2023-01-16T10:39:05;95396.31;;;5.44;74.20
50790;BME280;37287;47.554;7.844;2023-01-16T10:41:37;95400.22;;;5.39;74.71
50790;BME280;37287;47.554;7.844;2023-01-16T10:44:39;95393.00;;;5.32;74.47
50790;BME280;37287;47.554;7.844;2023-01-16T10:47:35;95396.50;;;5.29;74.89
50790;BME280;37287;47.554;7.844;2023-01-16T10:50:21;95398.03;;;5.30;75.49
50790;BME280;37287;47.554;7.844;2023-01-16T10:53:03;95380.84;;;5.24;75.98
50790;BME280;37287;47.554;7.844;2023-01-16T10:55:32;95391.16;;;5.26;77.45
50790;BME280;37287;47.554;7.844;2023-01-16T10:58:06;95378.53;;;5.26;77.18
50790;BME280;37287;47.554;7.844;2023-01-16T11:00:37;95377.41;;;5.24;77.72
50790;BME280;37287;47.554;7.844;2023-01-16T11:03:25;95367.47;;;5.21;76.75
50790;BME280;37287;47.554;7.844;2023-01-16T11:06:12;95367.41;;;5.24;78.38
50790;BME280;37287;47.554;7.844;2023-01-16T11:08:43;95359.84;;;5.19;78.38
50790;BME280;37287;47.554;7.844;2023-01-16T11:11:14;95361.75;;;5.19;78.70
50790;BME280;37287;47.554;7.844;2023-01-16T11:14:09;95347.56;;;5.18;79.24
50790;BME280;37287;47.554;7.844;2023-01-16T11:16:55;95355.63;;;5.18;79.90
50790;BME280;37287;47.554;7.844;2023-01-16T11:19:43;95349.84;;;5.20;79.82
50790;BME280;37287;47.554;7.844;2023-01-16T11:22:22;95352.13;;;5.21;79.34
50790;BME280;37287;47.554;7.844;2023-01-16T11:24:58;95368.22;;;5.21;79.83
50790;BME280;37287;47.554;7.844;2023-01-16T11:27:50;95358.81;;;5.40;80.64
50790;BME280;37287;47.554;7.844;2023-01-16T11:30:21;95353.69;;;5.49;79.89
50790;BME280;37287;47.554;7.844;2023-01-16T11:32:55;95347.22;;;5.47;78.41
50790;BME280;37287;47.554;7.844;2023-01-16T11:35:31;95339.88;;;5.51;79.91
50790;BME280;37287;47.554;7.844;2023-01-16T11:38:01;95332.50;;;5.59;79.23
50790;BME280;37287;47.554;7.844;2023-01-16T11:40:37;95315.28;;;5.56;78.13
50790;BME280;37287;47.554;7.844;2023-01-16T11:43:16;95315.88;;;5.67;78.17
50790;BME280;37287;47.554;7.844;2023-01-16T11:49:14;95298.69;;;5.89;75.47
50790;BME280;37287;47.554;7.844;2023-01-16T11:51:43;95300.31;;;6.10;76.63
50790;BME280;37287;47.554;7.844;2023-01-16T11:54:15;95296.63;;;6.24;75.56
50790;BME280;37287;47.554;7.844;2023-01-16T11:57:04;95294.31;;;6.46;74.63
50790;BME280;37287;47.554;7.844;2023-01-16T11:59:48;95287.06;;;6.43;74.67
50790;BME280;37287;47.554;7.844;2023-01-16T12:02:44;95279.19;;;6.32;72.27
50790;BME280;37287;47.554;7.844;2023-01-16T12:11:11;95260.28;;;6.59;72.20
50790;BME280;37287;47.554;7.844;2023-01-16T12:14:00;95255.78;;;6.52;72.88
50790;BME280;37287;47.554;7.844;2023-01-16T12:19:50;95230.97;;;6.25;72.80
50790;BME280;37287;47.554;7.844;2023-01-16T12:22:26;95232.56;;;6.22;72.76
50790;BME280;37287;47.554;7.844;2023-01-16T12:39:54;95192.81;;;5.90;73.47
50790;BME280;37287;47.554;7.844;2023-01-16T12:42:38;95199.94;;;6.00;73.94
50790;BME280;37287;47.554;7.844;2023-01-16T12:48:28;95170.69;;;6.06;73.82
50790;BME280;37287;47.554;7.844;2023-01-16T12:54:18;95165.72;;;6.04;72.43
50790;BME280;37287;47.554;7.844;2023-01-16T12:59:53;95157.25;;;6.06;72.88
50790;BME280;37287;47.554;7.844;2023-01-16T13:02:37;95156.56;;;6.01;72.19
50790;BME280;37287;47.554;7.844;2023-01-16T13:05:14;95151.03;;;6.09;72.84
50790;BME280;37287;47.554;7.844;2023-01-16T13:10:53;95132.75;;;6.24;72.36
50790;BME280;37287;47.554;7.844;2023-01-16T13:13:52;95131.13;;;6.26;72.34
50790;BME280;37287;47.554;7.844;2023-01-16T13:16:32;95133.28;;;6.35;72.08
50790;BME280;37287;47.554;7.844;2023-01-16T13:19:03;95129.00;;;6.37;70.88
50790;BME280;37287;47.554;7.844;2023-01-16T13:21:50;95120.16;;;6.57;71.58
50790;BME280;37287;47.554;7.844;2023-01-16T13:24:26;95124.56;;;6.67;72.02
50790;BME280;37287;47.554;7.844;2023-01-16T13:27:00;95118.06;;;6.65;71.01
50790;BME280;37287;47.554;7.844;2023-01-16T13:29:33;95115.06;;;6.79;71.54
50790;BME280;37287;47.554;7.844;2023-01-16T13:34:59;95119.22;;;7.00;68.91
50790;BME280;37287;47.554;7.844;2023-01-16T13:37:40;95121.75;;;7.08;70.85
50790;BME280;37287;47.554;7.844;2023-01-16T13:40:42;95119.03;;;6.91;71.30
50790;BME280;37287;47.554;7.844;2023-01-16T13:43:30;95116.84;;;6.86;71.75
50790;BME280;37287;47.554;7.844;2023-01-16T13:46:16;95117.53;;;6.90;72.37
50790;BME280;37287;47.554;7.844;2023-01-16T13:48:51;95106.66;;;6.77;70.99
50790;BME280;37287;47.554;7.844;2023-01-16T13:51:18;95108.94;;;6.79;70.79
50790;BME280;37287;47.554;7.844;2023-01-16T13:53:51;95116.25;;;6.78;69.38
50790;BME280;37287;47.554;7.844;2023-01-16T13:56:25;95109.06;;;6.71;69.17
50790;BME280;37287;47.554;7.844;2023-01-16T13:59:05;95121.34;;;6.56;69.46
50790;BME280;37287;47.554;7.844;2023-01-16T14:06:52;95103.88;;;6.64;68.28
50790;BME280;37287;47.554;7.844;2023-01-16T14:12:35;95094.16;;;6.70;67.32
50790;BME280;37287;47.554;7.844;2023-01-16T14:15:20;95078.44;;;6.69;66.93
50790;BME280;37287;47.554;7.844;2023-01-16T14:18:18;95078.50;;;6.65;66.23
50790;BME280;37287;47.554;7.844;2023-01-16T14:20:50;95078.50;;;6.65;66.76
50790;BME280;37287;47.554;7.844;2023-01-16T14:23:19;95074.28;;;6.64;65.40
50790;BME280;37287;47.554;7.844;2023-01-16T14:26:07;95066.38;;;6.57;65.17
50790;BME280;37287;47.554;7.844;2023-01-16T14:28:35;95064.13;;;6.56;67.50
50790;BME280;37287;47.554;7.844;2023-01-16T14:31:04;95068.91;;;6.48;66.79
50790;BME280;37287;47.554;7.844;2023-01-16T14:33:33;95073.75;;;6.36;68.47
50790;BME280;37287;47.554;7.844;2023-01-16T14:36:00;95101.25;;;6.24;69.91
50790;BME280;37287;47.554;7.844;2023-01-16T14:38:29;95094.16;;;6.14;72.24
50790;BME280;37287;47.554;7.844;2023-01-16T14:41:01;95086.03;;;5.97;76.19
50790;BME280;37287;47.554;7.844;2023-01-16T14:44:21;95074.38;;;5.84;75.44
50790;BME280;37287;47.554;7.844;2023-01-16T14:47:23;95065.97;;;5.82;75.78
50790;BME280;37287;47.554;7.844;2023-01-16T14:50:12;95067.50;;;5.83;75.17
50790;BME280;37287;47.554;7.844;2023-01-16T14:53:12;95059.34;;;5.86;72.33
50790;BME280;37287;47.554;7.844;2023-01-16T14:56:05;95063.84;;;5.93;71.57
50790;BME280;37287;47.554;7.844;2023-01-16T14:58:54;95068.03;;;5.94;70.63
50790;BME280;37287;47.554;7.844;2023-01-16T15:01:27;95073.34;;;5.98;69.65
50790;BME280;37287;47.554;7.844;2023-01-16T15:04:15;95076.09;;;5.94;70.44
50790;BME280;37287;47.554;7.844;2023-01-16T15:06:48;95071.84;;;5.97;70.02
50790;BME280;37287;47.554;7.844;2023-01-16T15:09:19;95073.84;;;6.13;65.79
50790;BME280;37287;47.554;7.844;2023-01-16T15:11:57;95076.09;;;6.14;66.37
50790;BME280;37287;47.554;7.844;2023-01-16T15:14:27;95088.72;;;6.17;66.03
50790;BME280;37287;47.554;7.844;2023-01-16T15:17:02;95096.03;;;6.17;64.45
50790;BME280;37287;47.554;7.844;2023-01-16T15:20:19;95100.66;;;6.16;63.45
50790;BME280;37287;47.554;7.844;2023-01-16T15:23:18;95098.72;;;6.17;63.88